Time;durP1;ratioP1;P1;durP2;ratioP2;P2;SDS_P1;SDS_P2;PMS_P1;PMS_P2;Temp;Humidity;BMP_temperature;BMP_pressure;BME280_temperature;BME280_humidity;BME280_pressure;Samples;Min_cycle;Max_cycle;Signal;HPM_P1;HPM_P2
2021/12/18 00:01:36;;;;;;;18.33;9.95;;;;;;;;;;5092225;28;20143;-80
2021/12/18 00:04:09;;;;;;;15.50;9.65;;;;;;;;;;5091845;28;20063;-80
2021/12/18 00:06:38;;;;;;;14.88;8.82;;;;;;;;;;5093047;28;20147;-80
2021/12/18 00:09:08;;;;;;;16.50;10.40;;;;;;;;;;5093067;28;20043;-80
2021/12/18 00:11:37;;;;;;;20.13;11.50;;;;;;;;;;5091438;28;20131;-80
2021/12/18 00:14:07;;;;;;;21.05;12.63;;;;;;;;;;5093331;28;20039;-80
2021/12/18 00:16:35;;;;;;;19.50;12.50;;;;;;;;;;5092620;28;20060;-80
2021/12/18 00:19:10;;;;;;;25.33;12.82;;;;;;;;;;5093409;28;20033;-80
2021/12/18 00:21:39;;;;;;;23.85;14.55;;;;;;;;;;5093720;28;20070;-79
2021/12/18 00:24:09;;;;;;;23.23;14.35;;;;;;;;;;5096570;28;20131;-80
2021/12/18 00:26:42;;;;;;;26.38;14.70;;;;;;;;;;5096769;28;20097;-79
2021/12/18 00:29:11;;;;;;;23.60;13.23;;;;;;;;;;5095417;28;20102;-80
2021/12/18 00:31:43;;;;;;;22.45;14.75;;;;;;;;;;5096948;28;20071;-80
2021/12/18 00:34:12;;;;;;;23.00;13.60;;;;;;;;;;5096548;28;20071;-79
2021/12/18 00:36:40;;;;;;;20.88;13.57;;;;;;;;;;5096433;28;20054;-79
2021/12/18 00:39:12;;;;;;;21.95;13.57;;;;;;;;;;5095175;28;20067;-79
2021/12/18 00:44:16;;;;;;;21.88;13.85;;;;;;;;;;5096454;28;20036;-79
2021/12/18 00:46:46;;;;;;;21.48;14.02;;;;;;;;;;5096294;28;20044;-79
2021/12/18 00:49:17;;;;;;;23.48;13.60;;;;;;;;;;5096275;28;20044;-77
2021/12/18 00:51:47;;;;;;;20.55;12.70;;;;;;;;;;5095091;28;20139;-79
2021/12/18 00:54:17;;;;;;;18.02;11.52;;;;;;;;;;5096260;28;20040;-79
2021/12/18 00:56:47;;;;;;;17.58;11.73;;;;;;;;;;5094783;28;20098;-79
2021/12/18 00:59:17;;;;;;;19.02;12.55;;;;;;;;;;5095972;28;20067;-79
2021/12/18 01:02:11;;;;;;;18.15;11.57;;;;;;;;;;5095209;28;20048;-79
2021/12/18 01:05:08;;;;;;;15.43;9.98;;;;;;;;;;5096257;28;20047;-79
2021/12/18 01:11:46;;;;;;;17.10;10.93;;;;;;;;;;5095971;28;20441;-80
2021/12/18 01:25:13;;;;;;;13.90;9.40;;;;;;;;;;5111521;28;20080;-79
2021/12/18 01:27:45;;;;;;;14.95;9.40;;;;;;;;;;5095875;28;20075;-79
2021/12/18 01:33:30;;;;;;;14.13;8.98;;;;;;;;;;5095206;28;20044;-79
2021/12/18 01:36:02;;;;;;;17.23;9.70;;;;;;;;;;5094139;28;20479;-79
2021/12/18 01:38:31;;;;;;;15.43;9.45;;;;;;;;;;5093937;28;20048;-79
2021/12/18 01:41:05;;;;;;;14.55;9.15;;;;;;;;;;5111086;28;20148;-80
2021/12/18 01:46:16;;;;;;;15.82;9.23;;;;;;;;;;5111028;28;20040;-80
2021/12/18 01:52:00;;;;;;;14.63;8.57;;;;;;;;;;5127877;27;20094;-79
2021/12/18 01:54:30;;;;;;;16.98;9.02;;;;;;;;;;5095501;28;20482;-79
2021/12/18 01:56:59;;;;;;;16.35;8.75;;;;;;;;;;5093658;28;20139;-79
2021/12/18 01:59:46;;;;;;;15.73;8.95;;;;;;;;;;5095097;28;20036;-79
2021/12/18 02:02:15;;;;;;;;;;;;;;;;;;5094251;28;20044;-79
2021/12/18 02:04:45;;;;;;;14.63;8.57;;;;;;;;;;5094867;28;19920;-79
2021/12/18 02:07:15;;;;;;;14.95;9.10;;;;;;;;;;5093677;28;20140;-79
2021/12/18 02:10:47;;;;;;;17.42;9.15;;;;;;;;;;5094717;28;20119;-79
2021/12/18 02:21:17;;;;;;;12.85;8.57;;;;;;;;;;5094527;28;20418;-79
2021/12/18 02:23:48;;;;;;;13.57;8.63;;;;;;;;;;5094253;28;20503;-80
2021/12/18 02:26:17;;;;;;;15.15;8.73;;;;;;;;;;5127272;27;20093;-79
2021/12/18 02:28:48;;;;;;;16.77;8.63;;;;;;;;;;5094725;28;20063;-79
2021/12/18 02:31:21;;;;;;;13.02;8.35;;;;;;;;;;5093262;28;20052;-79
2021/12/18 02:33:50;;;;;;;15.02;8.98;;;;;;;;;;5094588;28;20063;-79
2021/12/18 02:36:24;;;;;;;15.55;9.25;;;;;;;;;;5094386;28;20115;-80
2021/12/18 02:44:09;;;;;;;21.38;12.63;;;;;;;;;;5093510;28;20040;-79
2021/12/18 02:46:39;;;;;;;18.42;11.27;;;;;;;;;;5092636;28;20451;-79
2021/12/18 02:49:32;;;;;;;23.85;13.48;;;;;;;;;;5092911;28;20093;-80
2021/12/18 02:55:35;;;;;;;20.85;12.93;;;;;;;;;;5092396;28;20028;-79
2021/12/18 03:01:18;;;;;;;28.35;17.17;;;;;;;;;;5094057;28;20089;-79
2021/12/18 03:03:49;;;;;;;29.30;15.50;;;;;;;;;;5109182;28;20086;-79
2021/12/18 03:23:15;;;;;;;23.75;13.85;;;;;;;;;;5084830;28;20097;-79
2021/12/18 03:25:55;;;;;;;21.83;12.20;;;;;;;;;;5093478;28;20063;-79
2021/12/18 03:28:29;;;;;;;19.85;11.43;;;;;;;;;;5093568;28;20400;-80
2021/12/18 03:31:23;;;;;;;20.85;12.48;;;;;;;;;;5093684;28;20036;-79
2021/12/18 03:33:52;;;;;;;18.48;11.23;;;;;;;;;;5092189;28;20066;-79
2021/12/18 03:36:22;;;;;;;20.10;12.98;;;;;;;;;;5093310;28;20032;-79
2021/12/18 03:38:54;;;;;;;19.88;12.30;;;;;;;;;;5092159;28;20075;-79
2021/12/18 03:41:21;;;;;;;17.70;11.95;;;;;;;;;;5092375;28;20117;-79
2021/12/18 03:44:14;;;;;;;21.65;13.10;;;;;;;;;;5093429;28;20054;-79
2021/12/18 03:46:44;;;;;;;21.73;12.75;;;;;;;;;;5126190;28;20070;-79
2021/12/18 03:49:38;;;;;;;23.98;14.00;;;;;;;;;;5092032;28;20410;-80
2021/12/18 03:52:08;;;;;;;24.38;14.20;;;;;;;;;;5093271;28;20101;-80
2021/12/18 03:54:37;;;;;;;21.90;13.20;;;;;;;;;;5094077;28;20036;-79
2021/12/18 03:57:10;;;;;;;23.80;14.20;;;;;;;;;;5097461;28;20514;-79
2021/12/18 04:00:02;;;;;;;23.38;12.65;;;;;;;;;;5096148;28;20135;-79
2021/12/18 04:03:09;;;;;;;20.23;12.77;;;;;;;;;;5097544;28;20106;-79
2021/12/18 04:09:37;;;;;;;24.02;13.43;;;;;;;;;;5096980;28;20038;-79
2021/12/18 04:12:26;;;;;;;25.98;16.05;;;;;;;;;;5096624;28;20048;-79
2021/12/18 04:14:55;;;;;;;28.48;16.95;;;;;;;;;;5097039;28;20119;-79
2021/12/18 04:17:48;;;;;;;27.50;16.30;;;;;;;;;;5095178;28;20046;-79
2021/12/18 04:20:20;;;;;;;26.90;15.65;;;;;;;;;;5129876;27;20105;-79
2021/12/18 04:22:47;;;;;;;24.80;15.00;;;;;;;;;;5093979;28;20503;-80
2021/12/18 04:25:26;;;;;;;26.02;16.10;;;;;;;;;;5095416;28;20499;-80
2021/12/18 04:27:54;;;;;;;24.65;14.88;;;;;;;;;;5097171;28;20036;-79
2021/12/18 04:30:31;;;;;;;25.42;15.00;;;;;;;;;;5096567;28;20052;-79
2021/12/18 04:33:24;;;;;;;28.30;15.73;;;;;;;;;;5095542;28;20101;-79
2021/12/18 04:35:54;;;;;;;27.15;15.43;;;;;;;;;;5095233;28;20078;-79
2021/12/18 04:38:23;;;;;;;26.20;15.32;;;;;;;;;;5095284;28;20048;-79
2021/12/18 04:40:55;;;;;;;27.30;16.10;;;;;;;;;;5095396;28;20074;-79
2021/12/18 04:43:50;;;;;;;24.92;15.95;;;;;;;;;;5096805;28;20051;-79
2021/12/18 04:46:21;;;;;;;;;;;;;;;;;;5095389;28;20093;-80
2021/12/18 04:49:14;;;;;;;25.55;15.18;;;;;;;;;;5096763;27;19920;-79
2021/12/18 04:51:45;;;;;;;27.05;16.02;;;;;;;;;;5095109;28;20374;-79
2021/12/18 04:54:17;;;;;;;29.40;16.48;;;;;;;;;;5094896;28;20052;-79
2021/12/18 04:56:49;;;;;;;29.27;17.45;;;;;;;;;;5096091;28;20131;-79
2021/12/18 04:59:17;;;;;;;33.30;18.88;;;;;;;;;;5095040;28;20075;-80
2021/12/18 05:01:47;;;;;;;32.97;17.45;;;;;;;;;;5094749;28;20098;-79
2021/12/18 05:04:20;;;;;;;32.88;17.52;;;;;;;;;;5112016;28;20134;-80
2021/12/18 05:06:51;;;;;;;41.40;24.13;;;;;;;;;;5095137;28;20051;-79
2021/12/18 05:09:21;;;;;;;39.65;23.98;;;;;;;;;;5094551;28;20044;-79
2021/12/18 05:11:55;;;;;;;34.55;21.25;;;;;;;;;;5094651;28;20055;-79
2021/12/18 05:14:25;;;;;;;32.83;19.00;;;;;;;;;;5095904;28;20055;-80
2021/12/18 05:16:55;;;;;;;30.67;18.55;;;;;;;;;;5094596;28;20032;-79
2021/12/18 05:19:23;;;;;;;37.33;22.42;;;;;;;;;;5095745;28;20040;-80
2021/12/18 05:28:36;;;;;;;39.20;24.73;;;;;;;;;;5095756;28;20024;-80
2021/12/18 05:31:04;;;;;;;45.95;26.38;;;;;;;;;;5093860;28;20078;-80
2021/12/18 05:33:36;;;;;;;41.95;28.60;;;;;;;;;;5095217;28;20043;-79
2021/12/18 05:36:24;;;;;;;43.67;29.50;;;;;;;;;;5093861;28;20079;-79
2021/12/18 05:38:54;;;;;;;35.75;23.27;;;;;;;;;;5128204;27;20040;-80
2021/12/18 05:41:21;;;;;;;126.90;73.30;;;;;;;;;;5093711;28;20456;-80
2021/12/18 05:44:00;;;;;;;39.33;26.85;;;;;;;;;;5095503;28;20394;-79
2021/12/18 05:46:29;;;;;;;43.08;25.05;;;;;;;;;;5110079;28;20118;-80
2021/12/18 05:48:58;;;;;;;34.33;21.98;;;;;;;;;;5093872;28;20394;-79
2021/12/18 05:51:26;;;;;;;36.53;22.95;;;;;;;;;;5095218;28;20082;-79
2021/12/18 05:54:03;;;;;;;36.53;22.15;;;;;;;;;;5094786;28;20040;-79
2021/12/18 05:56:34;;;;;;;34.88;20.92;;;;;;;;;;5093565;28;20052;-79
2021/12/18 05:59:01;;;;;;;35.78;22.50;;;;;;;;;;5095613;28;20040;-80
2021/12/18 06:01:31;;;;;;;36.60;23.85;;;;;;;;;;5094455;28;20040;-80
2021/12/18 06:04:05;;;;;;;37.08;24.10;;;;;;;;;;5094996;28;20040;-80
2021/12/18 06:06:35;;;;;;;40.08;23.15;;;;;;;;;;5094972;28;20052;-80
2021/12/18 06:09:03;;;;;;;38.83;23.05;;;;;;;;;;5093516;28;20085;-80
2021/12/18 06:11:36;;;;;;;41.83;23.95;;;;;;;;;;5093002;28;20082;-80
2021/12/18 06:14:04;;;;;;;49.53;27.95;;;;;;;;;;5094545;28;20070;-81
2021/12/18 06:16:35;;;;;;;44.83;26.55;;;;;;;;;;5093283;28;20044;-79
2021/12/18 06:19:28;;;;;;;42.42;25.83;;;;;;;;;;5094701;28;20106;-80
2021/12/18 06:22:01;;;;;;;42.45;25.73;;;;;;;;;;5093311;28;20093;-80
2021/12/18 06:24:28;;;;;;;72.35;40.60;;;;;;;;;;5093006;28;20127;-80
2021/12/18 06:27:03;;;;;;;66.75;35.45;;;;;;;;;;5094187;28;20040;-80
2021/12/18 06:29:33;;;;;;;59.03;32.33;;;;;;;;;;5094173;28;20111;-80
2021/12/18 06:32:13;;;;;;;54.08;32.80;;;;;;;;;;5094571;28;20124;-80
2021/12/18 06:34:46;;;;;;;54.33;32.63;;;;;;;;;;5092873;28;20043;-80
2021/12/18 06:37:18;;;;;;;54.20;32.85;;;;;;;;;;5109744;28;20470;-79
2021/12/18 06:39:46;;;;;;;60.40;32.40;;;;;;;;;;5094060;28;20476;-80
2021/12/18 06:42:36;;;;;;;42.17;25.48;;;;;;;;;;5093248;28;20512;-80
2021/12/18 06:45:04;;;;;;;39.55;23.10;;;;;;;;;;5095119;28;20047;-80
2021/12/18 06:47:38;;;;;;;42.88;24.13;;;;;;;;;;5114241;27;20096;-80
2021/12/18 06:50:12;;;;;;;31.52;20.35;;;;;;;;;;5112725;28;20042;-80
2021/12/18 06:52:41;;;;;;;33.67;20.95;;;;;;;;;;5113084;28;20138;-80
2021/12/18 06:55:34;;;;;;;42.22;25.15;;;;;;;;;;5114311;28;20394;-80
2021/12/18 06:58:27;;;;;;;39.25;24.17;;;;;;;;;;5113967;28;20123;-78
2021/12/18 07:00:58;;;;;;;37.22;21.45;;;;;;;;;;5112764;28;20482;-78
2021/12/18 07:03:26;;;;;;;33.53;20.77;;;;;;;;;;5114123;28;20039;-77
2021/12/18 07:06:22;;;;;;;46.97;25.10;;;;;;;;;;5112138;28;20379;-77
2021/12/18 07:08:50;;;;;;;40.50;24.80;;;;;;;;;;5114121;28;20035;-77
2021/12/18 07:11:18;;;;;;;43.78;25.15;;;;;;;;;;5113489;28;20386;-77
2021/12/18 07:13:59;;;;;;;33.90;19.98;;;;;;;;;;5112787;28;20050;-77
2021/12/18 07:16:28;;;;;;;31.67;21.13;;;;;;;;;;5114140;28;20067;-77
2021/12/18 07:18:57;;;;;;;28.73;18.92;;;;;;;;;;5113684;28;20043;-77
2021/12/18 07:21:26;;;;;;;24.52;17.15;;;;;;;;;;5112358;28;20050;-77
2021/12/18 07:23:57;;;;;;;26.63;17.80;;;;;;;;;;5112037;28;20139;-77
2021/12/18 07:26:25;;;;;;;27.20;17.98;;;;;;;;;;5112783;28;20031;-76
2021/12/18 07:28:53;;;;;;;24.73;16.77;;;;;;;;;;5111942;28;20031;-77
2021/12/18 07:31:21;;;;;;;24.63;15.77;;;;;;;;;;5112901;28;20059;-77
2021/12/18 07:33:49;;;;;;;25.88;16.13;;;;;;;;;;5112256;28;20028;-77
2021/12/18 07:36:21;;;;;;;27.80;18.17;;;;;;;;;;5113072;28;20058;-78
2021/12/18 07:45:34;;;;;;;27.77;18.38;;;;;;;;;;5111521;28;20050;-76
2021/12/18 07:48:03;;;;;;;31.48;19.55;;;;;;;;;;5112968;28;20063;-77
2021/12/18 07:50:35;;;;;;;40.22;24.15;;;;;;;;;;5112034;28;20530;-77
2021/12/18 07:53:28;;;;;;;34.58;21.63;;;;;;;;;;5113716;28;20056;-77
2021/12/18 07:56:01;;;;;;;37.88;23.67;;;;;;;;;;5114019;28;20606;-77
2021/12/18 07:58:45;;;;;;;36.00;22.45;;;;;;;;;;5112349;28;20071;-77
2021/12/18 08:01:30;;;;;;;30.75;20.23;;;;;;;;;;5111865;28;20481;-75
2021/12/18 08:03:59;;;;;;;28.67;18.95;;;;;;;;;;5111609;28;20468;-75
2021/12/18 08:06:27;;;;;;;27.73;18.90;;;;;;;;;;5113382;28;20114;-77
2021/12/18 08:08:56;;;;;;;27.17;18.25;;;;;;;;;;5112986;28;20397;-74
2021/12/18 08:11:23;;;;;;;30.35;20.23;;;;;;;;;;5111745;28;20063;-75
2021/12/18 08:13:52;;;;;;;37.38;22.92;;;;;;;;;;5109043;28;20044;-76
2021/12/18 08:16:21;;;;;;;43.25;26.63;;;;;;;;;;5111574;28;20043;-75
2021/12/18 08:18:49;;;;;;;55.00;32.92;;;;;;;;;;5113686;28;20047;-77
2021/12/18 08:21:21;;;;;;;51.70;32.28;;;;;;;;;;5113672;28;20133;-77
2021/12/18 08:23:50;;;;;;;50.85;32.47;;;;;;;;;;5111626;28;20044;-76
2021/12/18 08:26:20;;;;;;;49.40;31.27;;;;;;;;;;5113797;28;20059;-76
2021/12/18 08:28:52;;;;;;;53.30;31.90;;;;;;;;;;5113456;28;20044;-76
2021/12/18 08:31:30;;;;;;;46.53;29.85;;;;;;;;;;5112023;28;20428;-76
2021/12/18 08:34:01;;;;;;;40.35;25.88;;;;;;;;;;5113106;28;20508;-76
2021/12/18 08:36:33;;;;;;;34.95;23.05;;;;;;;;;;5111882;28;20052;-77
2021/12/18 08:39:04;;;;;;;41.15;26.73;;;;;;;;;;5111856;28;20040;-76
2021/12/18 08:41:33;;;;;;;42.05;26.85;;;;;;;;;;5113471;27;20050;-75
2021/12/18 08:44:02;;;;;;;38.45;23.73;;;;;;;;;;5138120;27;20050;-74
2021/12/18 08:46:40;;;;;;;37.33;23.70;;;;;;;;;;5137660;27;20031;-76
2021/12/18 08:49:08;;;;;;;42.42;27.98;;;;;;;;;;5137845;27;20042;-76
2021/12/18 08:51:44;;;;;;;32.90;20.85;;;;;;;;;;5136346;27;20050;-76
2021/12/18 08:54:12;;;;;;;21.15;13.98;;;;;;;;;;5135672;27;20038;-79
2021/12/18 08:57:01;;;;;;;24.35;16.17;;;;;;;;;;5133656;27;20045;-79
2021/12/18 08:59:59;;;;;;;24.63;15.90;;;;;;;;;;5123573;27;20136;-76
2021/12/18 09:02:31;;;;;;;20.88;13.95;;;;;;;;;;5115435;27;20126;-75
2021/12/18 09:04:58;;;;;;;18.58;10.95;;;;;;;;;;5094815;28;20072;-75
2021/12/18 09:07:51;;;;;;;20.05;11.75;;;;;;;;;;5096345;28;20054;-75
2021/12/18 09:10:44;;;;;;;20.27;11.93;;;;;;;;;;5096258;28;20040;-76
2021/12/18 09:13:37;;;;;;;19.67;11.27;;;;;;;;;;5096204;28;20113;-77
2021/12/18 09:16:33;;;;;;;22.40;13.55;;;;;;;;;;5096367;28;20402;-76
2021/12/18 09:19:03;;;;;;;26.10;16.42;;;;;;;;;;5113265;27;20044;-76
2021/12/18 09:21:34;;;;;;;20.02;13.43;;;;;;;;;;5115379;28;20545;-75
2021/12/18 09:24:06;;;;;;;22.25;13.98;;;;;;;;;;5119633;27;20040;-74
2021/12/18 09:26:39;;;;;;;21.23;14.00;;;;;;;;;;5133443;27;20088;-73
2021/12/18 09:29:07;;;;;;;14.98;9.40;;;;;;;;;;5134980;27;20481;-74
2021/12/18 09:32:00;;;;;;;18.85;10.48;;;;;;;;;;5125844;27;20089;-75
2021/12/18 09:42:16;;;;;;;14.35;9.55;;;;;;;;;;5115551;28;20022;-74
2021/12/18 09:44:48;;;;;;;11.40;7.57;;;;;;;;;;5115160;28;20110;-75
2021/12/18 09:50:55;;;;;;;12.63;7.38;;;;;;;;;;5093454;28;20035;-75
2021/12/18 09:53:23;;;;;;;14.55;7.50;;;;;;;;;;5119317;27;20401;-75
2021/12/18 09:59:24;;;;;;;13.85;7.80;;;;;;;;;;5135074;27;20389;-75
2021/12/18 10:01:52;;;;;;;12.55;8.02;;;;;;;;;;5135257;27;20133;-76
2021/12/18 10:08:13;;;;;;;13.55;7.43;;;;;;;;;;5135901;27;20030;-76
2021/12/18 10:14:04;;;;;;;12.40;7.22;;;;;;;;;;5135243;27;19915;-76
2021/12/18 10:17:00;;;;;;;11.13;7.22;;;;;;;;;;5134170;27;20481;-75
2021/12/18 10:19:36;;;;;;;10.20;6.88;;;;;;;;;;5134176;27;20039;-75
2021/12/18 10:22:10;;;;;;;14.68;7.93;;;;;;;;;;5133805;27;20039;-75
2021/12/18 10:25:03;;;;;;;9.25;6.05;;;;;;;;;;5134195;27;20043;-75
2021/12/18 10:28:08;;;;;;;12.43;6.82;;;;;;;;;;5134556;27;20504;-75
2021/12/18 10:34:40;;;;;;;10.57;6.55;;;;;;;;;;5135407;27;20092;-74
2021/12/18 10:37:33;;;;;;;10.73;6.60;;;;;;;;;;5133412;27;20485;-74
2021/12/18 10:40:07;;;;;;;12.82;8.18;;;;;;;;;;5134055;27;20035;-75
2021/12/18 10:42:39;;;;;;;11.85;7.68;;;;;;;;;;5135601;27;20043;-76
2021/12/18 10:48:56;;;;;;;13.45;7.70;;;;;;;;;;5133912;27;20023;-76
2021/12/18 10:51:27;;;;;;;12.20;7.75;;;;;;;;;;5133268;27;20055;-75
2021/12/18 10:57:36;;;;;;;11.95;7.40;;;;;;;;;;5133976;27;20050;-77
2021/12/18 11:00:05;;;;;;;11.52;7.40;;;;;;;;;;5133035;27;20131;-76
2021/12/18 11:06:03;;;;;;;11.88;7.60;;;;;;;;;;5137947;27;20043;-77
2021/12/18 11:09:06;;;;;;;10.07;6.80;;;;;;;;;;5132940;27;20092;-77
2021/12/18 11:14:13;;;;;;;12.57;6.90;;;;;;;;;;5092048;28;20052;-76
2021/12/18 11:20:49;;;;;;;11.95;6.70;;;;;;;;;;5098833;28;20043;-77
2021/12/18 11:23:39;;;;;;;10.48;6.10;;;;;;;;;;5107493;28;20125;-76
2021/12/18 11:34:06;;;;;;;11.07;6.13;;;;;;;;;;5112363;28;20119;-76
2021/12/18 11:36:40;;;;;;;11.07;6.72;;;;;;;;;;5112545;28;20051;-77
2021/12/18 11:42:43;;;;;;;10.98;6.90;;;;;;;;;;5114115;28;20114;-77
2021/12/18 11:45:13;;;;;;;9.88;5.97;;;;;;;;;;5113043;28;20042;-77
2021/12/18 11:51:58;;;;;;;9.38;6.00;;;;;;;;;;5113711;28;20105;-77
2021/12/18 11:55:07;;;;;;;9.27;5.68;;;;;;;;;;5112631;28;20381;-77
2021/12/18 11:57:49;;;;;;;13.57;7.30;;;;;;;;;;5093269;28;20464;-76
2021/12/18 12:08:23;;;;;;;12.88;7.88;;;;;;;;;;5092617;28;20031;-76
2021/12/18 12:11:32;;;;;;;13.57;8.27;;;;;;;;;;5092447;28;20098;-77
2021/12/18 12:14:24;;;;;;;13.07;7.65;;;;;;;;;;5091735;28;20036;-77
2021/12/18 12:17:33;;;;;;;14.30;8.15;;;;;;;;;;5095748;28;20048;-76
2021/12/18 12:20:26;;;;;;;13.45;7.70;;;;;;;;;;5095390;28;20070;-77
2021/12/18 12:23:19;;;;;;;11.60;7.57;;;;;;;;;;5093374;28;20055;-77
2021/12/18 12:25:52;;;;;;;14.27;8.40;;;;;;;;;;5095421;28;20506;-77
2021/12/18 12:32:20;;;;;;;13.70;8.80;;;;;;;;;;5096258;28;20379;-77
2021/12/18 12:35:13;;;;;;;14.20;9.05;;;;;;;;;;5095251;28;20044;-76
2021/12/18 12:41:41;;;;;;;15.10;9.38;;;;;;;;;;5115047;28;20450;-77
2021/12/18 12:48:10;;;;;;;15.48;8.75;;;;;;;;;;5096586;28;20440;-77
2021/12/18 12:54:35;;;;;;;16.85;9.93;;;;;;;;;;5065029;28;20072;-76
2021/12/18 13:00:43;;;;;;;13.38;9.23;;;;;;;;;;5095790;28;20128;-76
2021/12/18 13:03:19;;;;;;;15.43;9.30;;;;;;;;;;5095896;28;20040;-77
2021/12/18 13:06:17;;;;;;;16.90;9.52;;;;;;;;;;5096227;28;20094;-77
2021/12/18 13:08:45;;;;;;;15.80;9.55;;;;;;;;;;5094641;28;20470;-75
2021/12/18 13:15:17;;;;;;;14.73;7.90;;;;;;;;;;5094935;28;20476;-74
2021/12/18 13:18:07;;;;;;;15.23;8.52;;;;;;;;;;5094741;28;20052;-75
2021/12/18 13:20:45;;;;;;;11.40;7.80;;;;;;;;;;5094624;28;20040;-74
2021/12/18 13:27:12;;;;;;;9.55;6.93;;;;;;;;;;5095388;28;20060;-75
2021/12/18 13:30:07;;;;;;;11.90;7.15;;;;;;;;;;5094783;28;20123;-75
2021/12/18 13:32:59;;;;;;;7.63;4.80;;;;;;;;;;5095030;28;20044;-75
2021/12/18 13:35:52;;;;;;;10.05;5.90;;;;;;;;;;5093904;28;20130;-74
2021/12/18 13:38:45;;;;;;;11.68;6.25;;;;;;;;;;5094165;28;20071;-75
2021/12/18 13:41:19;;;;;;;10.18;6.57;;;;;;;;;;5094058;28;20043;-74
2021/12/18 13:43:56;;;;;;;16.75;8.82;;;;;;;;;;5095523;28;20119;-74
2021/12/18 13:46:29;;;;;;;16.13;9.05;;;;;;;;;;5095282;28;20394;-75
2021/12/18 13:49:18;;;;;;;10.05;5.65;;;;;;;;;;5093426;28;20552;-74
2021/12/18 13:52:11;;;;;;;8.75;5.18;;;;;;;;;;5094127;28;20067;-74
2021/12/18 13:54:41;;;;;;;10.73;6.18;;;;;;;;;;5093891;28;20044;-75
2021/12/18 13:57:22;;;;;;;13.10;6.60;;;;;;;;;;5095075;28;20123;-74
2021/12/18 14:00:00;;;;;;;9.88;4.95;;;;;;;;;;5095226;28;20040;-75
2021/12/18 14:02:36;;;;;;;7.75;5.07;;;;;;;;;;5095299;28;20044;-76
2021/12/18 14:05:10;;;;;;;10.82;6.30;;;;;;;;;;5095198;28;20050;-76
2021/12/18 14:07:55;;;;;;;6.68;4.07;;;;;;;;;;5093264;28;20044;-75
2021/12/18 14:10:53;;;;;;;9.00;4.47;;;;;;;;;;5077097;28;20080;-77
2021/12/18 14:13:20;;;;;;;11.95;6.57;;;1.80;99.90;;;;;;5126937;27;20422;-76
2021/12/18 14:16:10;;;;;;;8.18;4.72;;;;;;;;;;5093113;28;20036;-79
2021/12/18 14:18:49;;;;;;;8.93;5.55;;;;;;;;;;5094807;28;20048;-79
2021/12/18 14:21:35;;;;;;;11.80;5.88;;;;;;;;;;5093068;28;20044;-78
2021/12/18 14:24:02;;;;;;;5.72;4.47;;;;;;;;;;5093433;28;20391;-76
2021/12/18 14:26:55;;;;;;;12.57;6.80;;;;;;;;;;5095183;28;20047;-76
2021/12/18 14:29:32;;;;;;;12.77;7.30;;;;;;;;;;5105655;28;20447;-77
2021/12/18 14:40:03;;;;;;;16.77;9.65;;;2.00;99.90;;;;;;5105566;28;20143;-76
2021/12/18 14:42:42;;;;;;;13.73;8.90;;;2.10;99.90;;;;;;5113479;28;20108;-77
2021/12/18 14:45:42;;;;;;;15.02;9.85;;;2.20;99.90;;;;;;5114358;28;20164;-77
2021/12/18 14:49:17;;;;;;;17.40;10.43;;;2.30;99.90;;;;;;5113186;28;20050;-77
2021/12/18 14:52:10;;;;;;;22.77;12.90;;;2.00;99.90;;;;;;5112927;28;20040;-77
2021/12/18 14:54:48;;;;;;;27.25;16.73;;;;;;;;;;5093292;28;20093;-77
2021/12/18 14:57:45;;;;;;;9.38;7.03;;;;;;;;;;5093747;28;20110;-73
2021/12/18 15:00:22;;;;;;;11.43;7.90;;;;;;;;;;5092348;28;20383;-74
2021/12/18 15:03:16;;;;;;;13.10;10.10;;;2.30;99.90;;;;;;5093406;28;20040;-74
2021/12/18 15:05:55;;;;;;;17.17;11.65;;;2.20;99.90;;;;;;5092367;28;20074;-75
2021/12/18 15:08:38;;;;;;;19.95;12.15;;;2.30;99.90;;;;;;5093422;28;20128;-75
2021/12/18 15:12:04;;;;;;;20.42;12.52;;;2.30;99.90;;;;;;5093655;28;20058;-75
2021/12/18 15:14:36;;;;;;;36.88;21.35;;;2.30;99.90;;;;;;5093407;28;20122;-75
2021/12/18 15:21:36;;;;;;;20.15;12.48;;;2.40;99.90;;;;;;5093286;28;20505;-75
2021/12/18 15:24:29;;;;;;;13.38;8.77;;;2.30;99.90;;;;;;5091449;28;20040;-76
2021/12/18 15:27:22;;;;;;;11.60;8.25;;;2.20;99.90;;;;;;5091823;28;20525;-74
2021/12/18 15:29:49;;;;;;;11.07;7.53;;;2.10;99.90;;;;;;5092601;28;20043;-75
2021/12/18 15:32:42;;;;;;;13.73;9.40;;;2.20;99.90;;;;;;5092907;28;20511;-75
2021/12/18 15:35:20;;;;;;;21.02;14.82;;;2.30;99.90;;;;;;5108898;28;20532;-75
2021/12/18 15:38:38;;;;;;;13.82;9.20;;;2.10;99.90;;;;;;5093250;28;20105;-76
2021/12/18 15:41:30;;;;;;;16.80;11.63;;;;;;;;;;5092505;28;20048;-76
2021/12/18 15:44:03;;;;;;;14.35;10.18;;;2.50;99.90;;;;;;5093077;28;20048;-79
2021/12/18 15:46:42;;;;;;;16.13;10.40;;;2.30;99.90;;;;;;5092558;28;20561;-76
2021/12/18 15:49:34;;;;;;;22.90;16.35;;;2.40;99.90;;;;;;5091785;28;20044;-78
2021/12/18 15:52:21;;;;;;;16.92;12.57;;;2.60;99.90;;;;;;5096001;28;20036;-76
2021/12/18 15:55:15;;;;;;;13.90;9.68;;;2.60;99.90;;;;;;5095920;28;20048;-76
2021/12/18 15:57:42;;;;;;;16.75;11.23;;;2.50;99.90;;;;;;5096703;28;20494;-78
2021/12/18 16:01:08;;;;;;;13.98;10.55;;;2.50;99.90;;;;;;5097186;28;20044;-76
2021/12/18 16:07:05;;;;;;;14.40;9.85;;;;;;;;;;4992367;28;20053;-76
2021/12/18 16:10:22;;;;;;;15.88;10.77;;;2.60;99.90;;;;;;4994703;28;20133;-77
2021/12/18 16:12:53;;;;;;;12.90;9.02;;;2.70;99.90;;;;;;4999179;28;20054;-77
2021/12/18 16:15:22;;;;;;;11.13;7.93;;;2.80;99.90;;;;;;4997225;28;20046;-77
2021/12/18 16:18:14;;;;;;;10.27;7.28;;;2.60;99.90;;;;;;4997232;28;20042;-76
2021/12/18 16:21:05;;;;;;;9.80;6.80;;;2.70;99.90;;;;;;4996933;28;20046;-77
2021/12/18 16:23:58;;;;;;;11.15;7.72;;;2.70;99.90;;;;;;4997194;28;20076;-76
2021/12/18 16:26:26;;;;;;;9.88;7.85;;;2.60;99.90;;;;;;4997490;28;20038;-76
2021/12/18 16:28:54;;;;;;;11.15;7.82;;;2.60;99.90;;;;;;4997522;28;20049;-76
2021/12/18 16:31:21;;;;;;;10.57;7.55;;;2.70;99.90;;;;;;4997003;28;20133;-76
2021/12/18 16:33:49;;;;;;;9.18;6.03;;;2.70;99.90;;;;;;4997526;28;20043;-77
2021/12/18 16:36:19;;;;;;;10.40;6.35;;;2.70;99.90;;;;;;4996610;28;20050;-76
2021/12/18 16:38:49;;;;;;;9.18;6.45;;;2.50;99.90;;;;;;4997394;28;20050;-77
2021/12/18 16:41:19;;;;;;;10.57;6.30;;;2.70;99.90;;;;;;4996680;28;20486;-77
2021/12/18 16:43:49;;;;;;;7.80;5.55;;;2.60;99.90;;;;;;4996668;28;20460;-76
2021/12/18 16:46:19;;;;;;;7.50;5.25;;;2.60;99.90;;;;;;4997453;28;20125;-76
2021/12/18 16:48:46;;;;;;;7.65;5.53;;;2.60;99.90;;;;;;4997494;28;20050;-77
2021/12/18 16:51:25;;;;;;;7.93;5.57;;;2.70;99.90;;;;;;4997934;28;20039;-79
2021/12/18 16:53:57;;;;;;;7.05;5.32;;;2.80;99.90;;;;;;4996599;28;20563;-76
2021/12/18 16:56:25;;;;;;;8.85;6.20;;;2.60;99.90;;;;;;4998305;28;20073;-76
2021/12/18 16:59:18;;;;;;;7.72;4.93;;;2.20;99.90;;;;;;4998110;28;20042;-76
2021/12/18 17:01:47;;;;;;;8.35;5.70;;;2.60;99.90;;;;;;4997441;28;20078;-77
2021/12/18 17:04:18;;;;;;;8.13;4.70;;;2.60;99.90;;;;;;4997311;28;20070;-76
2021/12/18 17:06:49;;;;;;;6.97;4.93;;;2.60;99.90;;;;;;4997185;28;20069;-77
2021/12/18 17:09:19;;;;;;;8.30;5.30;;;2.60;99.90;;;;;;4980438;28;20077;-77
2021/12/18 17:11:46;;;;;;;10.50;6.55;;;2.70;99.90;;;;;;4997837;28;20484;-77
2021/12/18 17:14:14;;;;;;;14.00;10.05;;;2.70;99.90;;;;;;4997054;28;20054;-77
2021/12/18 17:16:42;;;;;;;18.25;11.98;;;2.20;99.90;;;;;;4997871;28;20074;-78
2021/12/18 17:19:09;;;;;;;23.55;14.25;;;2.60;99.90;;;;;;4998423;28;20049;-78
2021/12/18 17:21:38;;;;;;;21.80;14.57;;;2.40;99.90;;;;;;4997090;28;20121;-76
2021/12/18 17:24:06;;;;;;;23.67;15.80;;;2.40;99.90;;;;;;4996774;28;20088;-76
2021/12/18 17:26:35;;;;;;;20.50;13.25;;;2.60;99.90;;;;;;4996663;28;20042;-78
2021/12/18 17:29:03;;;;;;;17.67;11.55;;;2.60;99.90;;;;;;4996823;28;20496;-77
2021/12/18 17:31:33;;;;;;;23.92;12.68;;;2.50;99.90;;;;;;4996045;28;20047;-79
2021/12/18 17:34:02;;;;;;;22.73;13.40;;;2.60;99.90;;;;;;4996584;28;20038;-77
2021/12/18 17:36:31;;;;;;;24.02;14.50;;;2.50;99.90;;;;;;4996275;28;20038;-76
2021/12/18 17:38:58;;;;;;;29.58;17.65;;;2.70;99.90;;;;;;4996743;28;20070;-77
2021/12/18 17:41:31;;;;;;;37.55;19.63;;;2.60;99.90;;;;;;4996666;28;20050;-77
2021/12/18 17:43:59;;;;;;;45.35;24.00;;;2.50;99.90;;;;;;4996118;28;20452;-75
2021/12/18 17:46:27;;;;;;;45.38;21.48;;;2.70;99.90;;;;;;4996622;28;20396;-77
2021/12/18 17:48:55;;;;;;;52.90;27.77;;;2.50;99.90;;;;;;4996381;28;20042;-76
2021/12/18 17:51:25;;;;;;;52.90;29.45;;;2.40;99.90;;;;;;4996402;28;20049;-75
2021/12/18 17:53:53;;;;;;;49.92;27.67;;;2.30;99.90;;;;;;4996466;28;20038;-76
2021/12/18 17:56:20;;;;;;;54.08;29.13;;;2.10;99.90;;;;;;4996080;28;20043;-75
2021/12/18 17:58:50;;;;;;;48.42;28.38;;;2.50;99.90;;;;;;4996821;28;20057;-76
2021/12/18 18:01:18;;;;;;;45.95;25.38;;;2.30;99.90;;;;;;4997094;28;20038;-76
2021/12/18 18:03:46;;;;;;;37.50;21.83;;;2.20;99.90;;;;;;4996102;28;20181;-78
2021/12/18 18:06:15;;;;;;;36.30;22.13;;;2.30;99.90;;;;;;4992450;28;20046;-75